sensor_id;sensor_type;location;lat;lon;timestamp;P1;durP1;ratioP1;P2;durP2;ratioP2
35128;SDS011;21301;43.626;10.580;2022-09-09T00:04:12;10.48;;;6.28;;
35128;SDS011;21301;43.626;10.580;2022-09-09T00:09:49;16.02;;;7.05;;
35128;SDS011;21301;43.626;10.580;2022-09-09T00:15:11;10.98;;;5.40;;
35128;SDS011;21301;43.626;10.580;2022-09-09T00:17:41;21.25;;;8.10;;
35128;SDS011;21301;43.626;10.580;2022-09-09T00:25:33;26.35;;;10.60;;
35128;SDS011;21301;43.626;10.580;2022-09-09T00:28:10;20.42;;;6.47;;
35128;SDS011;21301;43.626;10.580;2022-09-09T00:30:43;19.52;;;6.78;;
35128;SDS011;21301;43.626;10.580;2022-09-09T00:33:12;17.95;;;6.60;;
35128;SDS011;21301;43.626;10.580;2022-09-09T00:35:42;14.27;;;6.38;;
35128;SDS011;21301;43.626;10.580;2022-09-09T00:40:51;19.33;;;7.15;;
35128;SDS011;21301;43.626;10.580;2022-09-09T00:43:28;18.02;;;5.82;;
35128;SDS011;21301;43.626;10.580;2022-09-09T00:48:35;18.02;;;5.30;;
35128;SDS011;21301;43.626;10.580;2022-09-09T00:51:34;14.90;;;5.55;;
35128;SDS011;21301;43.626;10.580;2022-09-09T00:54:16;14.07;;;5.70;;
35128;SDS011;21301;43.626;10.580;2022-09-09T00:57:10;14.98;;;6.18;;
35128;SDS011;21301;43.626;10.580;2022-09-09T00:59:51;9.98;;;4.65;;
35128;SDS011;21301;43.626;10.580;2022-09-09T01:02:27;26.58;;;5.70;;
35128;SDS011;21301;43.626;10.580;2022-09-09T01:07:30;15.35;;;6.22;;
35128;SDS011;21301;43.626;10.580;2022-09-09T01:09:57;15.55;;;6.25;;
35128;SDS011;21301;43.626;10.580;2022-09-09T01:20:14;13.75;;;5.45;;
35128;SDS011;21301;43.626;10.580;2022-09-09T01:28:31;14.93;;;6.10;;
35128;SDS011;21301;43.626;10.580;2022-09-09T01:31:04;16.15;;;6.03;;
35128;SDS011;21301;43.626;10.580;2022-09-09T01:33:40;16.67;;;7.72;;
35128;SDS011;21301;43.626;10.580;2022-09-09T01:36:08;22.80;;;8.23;;
35128;SDS011;21301;43.626;10.580;2022-09-09T01:38:45;22.48;;;7.70;;
35128;SDS011;21301;43.626;10.580;2022-09-09T01:41:11;12.48;;;7.28;;
35128;SDS011;21301;43.626;10.580;2022-09-09T01:43:47;17.73;;;6.53;;
35128;SDS011;21301;43.626;10.580;2022-09-09T01:46:13;12.57;;;4.80;;
35128;SDS011;21301;43.626;10.580;2022-09-09T01:48:40;18.20;;;6.20;;
35128;SDS011;21301;43.626;10.580;2022-09-09T01:51:09;16.95;;;6.32;;
35128;SDS011;21301;43.626;10.580;2022-09-09T01:53:39;16.30;;;6.47;;
35128;SDS011;21301;43.626;10.580;2022-09-09T01:59:03;15.40;;;6.10;;
35128;SDS011;21301;43.626;10.580;2022-09-09T02:01:46;18.38;;;5.68;;
35128;SDS011;21301;43.626;10.580;2022-09-09T02:06:55;19.90;;;6.25;;
35128;SDS011;21301;43.626;10.580;2022-09-09T02:09:28;15.02;;;6.05;;
35128;SDS011;21301;43.626;10.580;2022-09-09T02:11:58;16.52;;;7.15;;
35128;SDS011;21301;43.626;10.580;2022-09-09T02:14:42;15.35;;;5.50;;
35128;SDS011;21301;43.626;10.580;2022-09-09T02:17:16;22.65;;;5.95;;
35128;SDS011;21301;43.626;10.580;2022-09-09T02:19:58;26.40;;;5.88;;
35128;SDS011;21301;43.626;10.580;2022-09-09T02:22:39;9.10;;;4.43;;
35128;SDS011;21301;43.626;10.580;2022-09-09T02:25:10;21.48;;;7.32;;
35128;SDS011;21301;43.626;10.580;2022-09-09T02:27:40;15.45;;;5.80;;
35128;SDS011;21301;43.626;10.580;2022-09-09T02:30:07;17.02;;;7.28;;
35128;SDS011;21301;43.626;10.580;2022-09-09T02:32:40;11.43;;;6.68;;
35128;SDS011;21301;43.626;10.580;2022-09-09T02:35:12;14.63;;;5.78;;
35128;SDS011;21301;43.626;10.580;2022-09-09T02:37:42;15.55;;;6.53;;
35128;SDS011;21301;43.626;10.580;2022-09-09T02:40:11;15.52;;;5.82;;
35128;SDS011;21301;43.626;10.580;2022-09-09T02:42:44;16.85;;;6.00;;
35128;SDS011;21301;43.626;10.580;2022-09-09T02:45:13;17.75;;;6.35;;
35128;SDS011;21301;43.626;10.580;2022-09-09T02:53:26;20.55;;;5.50;;
35128;SDS011;21301;43.626;10.580;2022-09-09T02:56:15;12.68;;;5.10;;
35128;SDS011;21301;43.626;10.580;2022-09-09T02:58:48;12.32;;;5.25;;
35128;SDS011;21301;43.626;10.580;2022-09-09T03:01:17;14.00;;;5.80;;
35128;SDS011;21301;43.626;10.580;2022-09-09T03:03:43;14.00;;;5.47;;
35128;SDS011;21301;43.626;10.580;2022-09-09T03:06:14;14.10;;;5.60;;
35128;SDS011;21301;43.626;10.580;2022-09-09T03:08:40;10.50;;;5.47;;
35128;SDS011;21301;43.626;10.580;2022-09-09T03:11:07;13.80;;;5.57;;
35128;SDS011;21301;43.626;10.580;2022-09-09T03:13:36;19.80;;;6.40;;
35128;SDS011;21301;43.626;10.580;2022-09-09T03:16:03;14.30;;;6.03;;
35128;SDS011;21301;43.626;10.580;2022-09-09T03:18:34;17.65;;;6.88;;
35128;SDS011;21301;43.626;10.580;2022-09-09T03:21:00;27.23;;;6.13;;
35128;SDS011;21301;43.626;10.580;2022-09-09T03:23:27;18.20;;;6.22;;
35128;SDS011;21301;43.626;10.580;2022-09-09T03:25:55;13.90;;;6.30;;
35128;SDS011;21301;43.626;10.580;2022-09-09T03:28:33;15.60;;;7.57;;
35128;SDS011;21301;43.626;10.580;2022-09-09T03:31:01;18.30;;;5.53;;
35128;SDS011;21301;43.626;10.580;2022-09-09T03:33:33;13.20;;;5.82;;
35128;SDS011;21301;43.626;10.580;2022-09-09T03:36:01;14.68;;;4.28;;
35128;SDS011;21301;43.626;10.580;2022-09-09T03:38:28;18.50;;;6.53;;
35128;SDS011;21301;43.626;10.580;2022-09-09T03:40:55;16.45;;;7.13;;
35128;SDS011;21301;43.626;10.580;2022-09-09T03:43:23;18.92;;;7.25;;
35128;SDS011;21301;43.626;10.580;2022-09-09T03:45:51;13.60;;;6.20;;
35128;SDS011;21301;43.626;10.580;2022-09-09T03:48:18;17.90;;;7.32;;
35128;SDS011;21301;43.626;10.580;2022-09-09T03:50:45;13.98;;;6.20;;
35128;SDS011;21301;43.626;10.580;2022-09-09T03:53:12;16.73;;;7.50;;
35128;SDS011;21301;43.626;10.580;2022-09-09T03:55:38;19.35;;;6.65;;
35128;SDS011;21301;43.626;10.580;2022-09-09T03:58:06;17.38;;;7.82;;
35128;SDS011;21301;43.626;10.580;2022-09-09T04:00:33;14.73;;;6.28;;
35128;SDS011;21301;43.626;10.580;2022-09-09T04:02:58;14.75;;;7.00;;
35128;SDS011;21301;43.626;10.580;2022-09-09T04:05:24;14.60;;;6.97;;
35128;SDS011;21301;43.626;10.580;2022-09-09T04:07:50;20.40;;;6.95;;
35128;SDS011;21301;43.626;10.580;2022-09-09T04:10:17;16.15;;;7.20;;
35128;SDS011;21301;43.626;10.580;2022-09-09T04:12:42;16.88;;;7.00;;
35128;SDS011;21301;43.626;10.580;2022-09-09T04:15:09;21.17;;;7.80;;
35128;SDS011;21301;43.626;10.580;2022-09-09T04:17:37;15.90;;;7.88;;
35128;SDS011;21301;43.626;10.580;2022-09-09T04:20:04;11.48;;;7.00;;
35128;SDS011;21301;43.626;10.580;2022-09-09T04:22:30;15.07;;;5.85;;
35128;SDS011;21301;43.626;10.580;2022-09-09T04:24:57;27.27;;;7.47;;
35128;SDS011;21301;43.626;10.580;2022-09-09T04:27:23;16.15;;;8.15;;
35128;SDS011;21301;43.626;10.580;2022-09-09T04:29:48;14.73;;;7.38;;
35128;SDS011;21301;43.626;10.580;2022-09-09T04:32:15;18.00;;;6.47;;
35128;SDS011;21301;43.626;10.580;2022-09-09T04:34:40;14.32;;;6.38;;
35128;SDS011;21301;43.626;10.580;2022-09-09T04:37:08;21.67;;;7.00;;
35128;SDS011;21301;43.626;10.580;2022-09-09T04:39:35;18.55;;;7.00;;
35128;SDS011;21301;43.626;10.580;2022-09-09T04:42:02;19.58;;;6.47;;
35128;SDS011;21301;43.626;10.580;2022-09-09T04:44:28;13.30;;;5.53;;
35128;SDS011;21301;43.626;10.580;2022-09-09T04:46:55;13.45;;;5.35;;
35128;SDS011;21301;43.626;10.580;2022-09-09T04:49:21;16.02;;;6.65;;
35128;SDS011;21301;43.626;10.580;2022-09-09T04:51:51;19.48;;;6.50;;
35128;SDS011;21301;43.626;10.580;2022-09-09T04:54:18;12.52;;;5.78;;
35128;SDS011;21301;43.626;10.580;2022-09-09T04:56:44;13.68;;;5.25;;
35128;SDS011;21301;43.626;10.580;2022-09-09T04:59:10;19.40;;;6.03;;
35128;SDS011;21301;43.626;10.580;2022-09-09T05:01:42;14.77;;;5.45;;
35128;SDS011;21301;43.626;10.580;2022-09-09T05:04:09;13.00;;;5.63;;
35128;SDS011;21301;43.626;10.580;2022-09-09T05:06:36;13.98;;;6.00;;
35128;SDS011;21301;43.626;10.580;2022-09-09T05:09:03;15.35;;;6.13;;
35128;SDS011;21301;43.626;10.580;2022-09-09T05:11:30;15.85;;;6.05;;
35128;SDS011;21301;43.626;10.580;2022-09-09T05:14:17;9.63;;;4.97;;
35128;SDS011;21301;43.626;10.580;2022-09-09T05:16:46;12.68;;;5.70;;
35128;SDS011;21301;43.626;10.580;2022-09-09T05:19:12;14.85;;;5.82;;
35128;SDS011;21301;43.626;10.580;2022-09-09T05:21:45;17.85;;;6.15;;
35128;SDS011;21301;43.626;10.580;2022-09-09T05:24:12;14.00;;;5.40;;
35128;SDS011;21301;43.626;10.580;2022-09-09T05:26:39;13.55;;;6.20;;
35128;SDS011;21301;43.626;10.580;2022-09-09T05:29:06;17.15;;;6.22;;
35128;SDS011;21301;43.626;10.580;2022-09-09T05:31:33;13.98;;;5.75;;
35128;SDS011;21301;43.626;10.580;2022-09-09T05:34:03;14.70;;;6.82;;
35128;SDS011;21301;43.626;10.580;2022-09-09T05:36:29;14.60;;;5.78;;
35128;SDS011;21301;43.626;10.580;2022-09-09T05:38:55;12.68;;;5.80;;
35128;SDS011;21301;43.626;10.580;2022-09-09T05:41:24;16.40;;;7.47;;
35128;SDS011;21301;43.626;10.580;2022-09-09T05:43:53;13.93;;;6.63;;
35128;SDS011;21301;43.626;10.580;2022-09-09T05:46:21;16.02;;;6.78;;
35128;SDS011;21301;43.626;10.580;2022-09-09T05:48:51;16.08;;;6.38;;
35128;SDS011;21301;43.626;10.580;2022-09-09T05:51:21;16.98;;;6.68;;
35128;SDS011;21301;43.626;10.580;2022-09-09T05:53:50;14.27;;;7.30;;
35128;SDS011;21301;43.626;10.580;2022-09-09T05:56:22;18.10;;;7.05;;
35128;SDS011;21301;43.626;10.580;2022-09-09T05:58:51;12.93;;;7.28;;
35128;SDS011;21301;43.626;10.580;2022-09-09T06:01:20;19.67;;;8.20;;
35128;SDS011;21301;43.626;10.580;2022-09-09T06:03:52;16.35;;;6.88;;
35128;SDS011;21301;43.626;10.580;2022-09-09T06:06:20;15.63;;;6.63;;
35128;SDS011;21301;43.626;10.580;2022-09-09T06:08:54;20.50;;;6.88;;
35128;SDS011;21301;43.626;10.580;2022-09-09T06:11:25;11.52;;;6.40;;
35128;SDS011;21301;43.626;10.580;2022-09-09T06:13:59;10.05;;;5.38;;
35128;SDS011;21301;43.626;10.580;2022-09-09T06:16:27;14.95;;;5.68;;
35128;SDS011;21301;43.626;10.580;2022-09-09T06:18:54;17.40;;;7.03;;
35128;SDS011;21301;43.626;10.580;2022-09-09T06:21:27;23.92;;;6.03;;
35128;SDS011;21301;43.626;10.580;2022-09-09T06:23:56;25.60;;;6.25;;
35128;SDS011;21301;43.626;10.580;2022-09-09T06:26:32;22.67;;;5.70;;
35128;SDS011;21301;43.626;10.580;2022-09-09T06:29:00;10.52;;;4.75;;
35128;SDS011;21301;43.626;10.580;2022-09-09T06:31:29;13.60;;;4.35;;
35128;SDS011;21301;43.626;10.580;2022-09-09T06:34:01;15.38;;;5.03;;
35128;SDS011;21301;43.626;10.580;2022-09-09T06:36:30;13.38;;;5.15;;
35128;SDS011;21301;43.626;10.580;2022-09-09T06:38:57;17.67;;;5.68;;
35128;SDS011;21301;43.626;10.580;2022-09-09T06:41:25;14.40;;;6.30;;
35128;SDS011;21301;43.626;10.580;2022-09-09T06:43:53;15.93;;;5.63;;
35128;SDS011;21301;43.626;10.580;2022-09-09T06:46:31;16.63;;;4.80;;
35128;SDS011;21301;43.626;10.580;2022-09-09T06:48:59;17.77;;;6.07;;
35128;SDS011;21301;43.626;10.580;2022-09-09T06:51:26;14.50;;;4.68;;
35128;SDS011;21301;43.626;10.580;2022-09-09T06:53:55;13.48;;;4.78;;
35128;SDS011;21301;43.626;10.580;2022-09-09T06:56:24;13.82;;;4.47;;
35128;SDS011;21301;43.626;10.580;2022-09-09T06:58:55;13.43;;;3.58;;
35128;SDS011;21301;43.626;10.580;2022-09-09T07:01:27;9.38;;;2.78;;
35128;SDS011;21301;43.626;10.580;2022-09-09T07:03:58;21.65;;;4.05;;
35128;SDS011;21301;43.626;10.580;2022-09-09T07:06:27;15.00;;;4.50;;
35128;SDS011;21301;43.626;10.580;2022-09-09T07:08:57;13.13;;;3.38;;
35128;SDS011;21301;43.626;10.580;2022-09-09T07:11:27;10.52;;;3.55;;
35128;SDS011;21301;43.626;10.580;2022-09-09T07:13:56;11.65;;;2.90;;
35128;SDS011;21301;43.626;10.580;2022-09-09T07:16:24;33.67;;;4.00;;
35128;SDS011;21301;43.626;10.580;2022-09-09T07:18:51;11.68;;;2.78;;
35128;SDS011;21301;43.626;10.580;2022-09-09T07:21:18;12.18;;;2.58;;
35128;SDS011;21301;43.626;10.580;2022-09-09T07:23:46;21.55;;;5.00;;
35128;SDS011;21301;43.626;10.580;2022-09-09T07:26:13;14.35;;;4.25;;
35128;SDS011;21301;43.626;10.580;2022-09-09T07:28:40;52.67;;;20.88;;
35128;SDS011;21301;43.626;10.580;2022-09-09T07:31:08;8.10;;;1.52;;
35128;SDS011;21301;43.626;10.580;2022-09-09T07:33:40;13.75;;;1.33;;
35128;SDS011;21301;43.626;10.580;2022-09-09T07:36:08;7.30;;;1.63;;
35128;SDS011;21301;43.626;10.580;2022-09-09T07:38:43;7.13;;;1.75;;
35128;SDS011;21301;43.626;10.580;2022-09-09T07:41:14;6.55;;;1.48;;
35128;SDS011;21301;43.626;10.580;2022-09-09T07:43:45;4.88;;;1.17;;
35128;SDS011;21301;43.626;10.580;2022-09-09T07:46:13;9.68;;;1.77;;
35128;SDS011;21301;43.626;10.580;2022-09-09T07:48:44;12.07;;;1.75;;
35128;SDS011;21301;43.626;10.580;2022-09-09T07:51:20;6.85;;;1.67;;
35128;SDS011;21301;43.626;10.580;2022-09-09T07:53:52;11.85;;;2.00;;
35128;SDS011;21301;43.626;10.580;2022-09-09T07:56:19;10.73;;;2.25;;
35128;SDS011;21301;43.626;10.580;2022-09-09T07:58:50;12.68;;;1.50;;
35128;SDS011;21301;43.626;10.580;2022-09-09T08:01:18;11.77;;;1.98;;
35128;SDS011;21301;43.626;10.580;2022-09-09T08:03:52;9.05;;;1.52;;
35128;SDS011;21301;43.626;10.580;2022-09-09T08:06:31;12.70;;;1.70;;
35128;SDS011;21301;43.626;10.580;2022-09-09T08:08:59;8.93;;;2.45;;
35128;SDS011;21301;43.626;10.580;2022-09-09T08:11:27;9.18;;;1.45;;
35128;SDS011;21301;43.626;10.580;2022-09-09T08:13:55;8.60;;;1.48;;
35128;SDS011;21301;43.626;10.580;2022-09-09T08:16:23;8.32;;;1.77;;
35128;SDS011;21301;43.626;10.580;2022-09-09T08:18:54;8.13;;;2.00;;
35128;SDS011;21301;43.626;10.580;2022-09-09T08:21:22;13.60;;;2.35;;
35128;SDS011;21301;43.626;10.580;2022-09-09T08:23:51;10.18;;;2.13;;
35128;SDS011;21301;43.626;10.580;2022-09-09T08:26:20;10.45;;;1.65;;
35128;SDS011;21301;43.626;10.580;2022-09-09T08:28:47;5.55;;;1.27;;
35128;SDS011;21301;43.626;10.580;2022-09-09T08:31:17;6.13;;;1.73;;
35128;SDS011;21301;43.626;10.580;2022-09-09T08:33:55;15.60;;;3.60;;
35128;SDS011;21301;43.626;10.580;2022-09-09T08:36:22;9.85;;;1.85;;
35128;SDS011;21301;43.626;10.580;2022-09-09T08:38:51;9.27;;;2.22;;
35128;SDS011;21301;43.626;10.580;2022-09-09T08:46:47;8.52;;;1.77;;
35128;SDS011;21301;43.626;10.580;2022-09-09T08:52:32;11.80;;;2.30;;
35128;SDS011;21301;43.626;10.580;2022-09-09T08:57:53;5.80;;;1.73;;
35128;SDS011;21301;43.626;10.580;2022-09-09T09:08:31;12.02;;;2.72;;
35128;SDS011;21301;43.626;10.580;2022-09-09T09:11:19;6.40;;;0.93;;
35128;SDS011;21301;43.626;10.580;2022-09-09T09:16:22;5.95;;;2.33;;
35128;SDS011;21301;43.626;10.580;2022-09-09T09:18:58;4.93;;;1.37;;
35128;SDS011;21301;43.626;10.580;2022-09-09T09:21:39;5.78;;;1.27;;
35128;SDS011;21301;43.626;10.580;2022-09-09T09:24:20;10.20;;;2.13;;
35128;SDS011;21301;43.626;10.580;2022-09-09T09:26:51;6.00;;;1.40;;
35128;SDS011;21301;43.626;10.580;2022-09-09T09:29:19;7.88;;;1.30;;
35128;SDS011;21301;43.626;10.580;2022-09-09T09:31:50;6.82;;;1.63;;
35128;SDS011;21301;43.626;10.580;2022-09-09T09:34:20;6.25;;;1.48;;
35128;SDS011;21301;43.626;10.580;2022-09-09T09:39:26;8.65;;;1.77;;
35128;SDS011;21301;43.626;10.580;2022-09-09T09:41:56;9.88;;;1.88;;
35128;SDS011;21301;43.626;10.580;2022-09-09T09:47:12;10.65;;;1.90;;
35128;SDS011;21301;43.626;10.580;2022-09-09T09:49:53;9.55;;;1.65;;
35128;SDS011;21301;43.626;10.580;2022-09-09T09:52:22;13.95;;;2.13;;
35128;SDS011;21301;43.626;10.580;2022-09-09T09:54:49;7.32;;;1.65;;
35128;SDS011;21301;43.626;10.580;2022-09-09T09:57:18;9.60;;;1.45;;
35128;SDS011;21301;43.626;10.580;2022-09-09T09:59:59;5.85;;;1.15;;
35128;SDS011;21301;43.626;10.580;2022-09-09T10:02:40;7.40;;;1.65;;
35128;SDS011;21301;43.626;10.580;2022-09-09T10:05:25;7.95;;;1.90;;
35128;SDS011;21301;43.626;10.580;2022-09-09T10:13:12;4.20;;;1.27;;
35128;SDS011;21301;43.626;10.580;2022-09-09T10:27:28;11.55;;;2.35;;
35128;SDS011;21301;43.626;10.580;2022-09-09T10:30:50;10.75;;;1.70;;
35128;SDS011;21301;43.626;10.580;2022-09-09T10:33:31;7.43;;;1.85;;
35128;SDS011;21301;43.626;10.580;2022-09-09T10:38:46;9.40;;;2.30;;
35128;SDS011;21301;43.626;10.580;2022-09-09T10:52:29;6.78;;;1.50;;
35128;SDS011;21301;43.626;10.580;2022-09-09T10:55:00;10.68;;;2.13;;
35128;SDS011;21301;43.626;10.580;2022-09-09T10:57:42;7.35;;;2.80;;
35128;SDS011;21301;43.626;10.580;2022-09-09T11:00:21;10.82;;;2.05;;
35128;SDS011;21301;43.626;10.580;2022-09-09T11:02:50;11.40;;;2.17;;
35128;SDS011;21301;43.626;10.580;2022-09-09T11:05:21;9.35;;;2.17;;
35128;SDS011;21301;43.626;10.580;2022-09-09T11:08:02;6.13;;;1.65;;
35128;SDS011;21301;43.626;10.580;2022-09-09T11:26:54;5.78;;;1.20;;
35128;SDS011;21301;43.626;10.580;2022-09-09T11:30:00;6.47;;;1.35;;
35128;SDS011;21301;43.626;10.580;2022-09-09T11:40:24;4.70;;;1.40;;
35128;SDS011;21301;43.626;10.580;2022-09-09T11:43:05;6.55;;;1.58;;
35128;SDS011;21301;43.626;10.580;2022-09-09T11:45:38;4.93;;;1.50;;
35128;SDS011;21301;43.626;10.580;2022-09-09T11:48:21;4.70;;;1.30;;
35128;SDS011;21301;43.626;10.580;2022-09-09T11:50:59;8.48;;;1.23;;
35128;SDS011;21301;43.626;10.580;2022-09-09T11:53:32;6.80;;;1.65;;
35128;SDS011;21301;43.626;10.580;2022-09-09T11:56:07;6.07;;;1.15;;
35128;SDS011;21301;43.626;10.580;2022-09-09T11:58:44;6.40;;;1.55;;
35128;SDS011;21301;43.626;10.580;2022-09-09T12:06:46;4.65;;;1.77;;
35128;SDS011;21301;43.626;10.580;2022-09-09T12:12:16;5.32;;;1.70;;
35128;SDS011;21301;43.626;10.580;2022-09-09T12:14:55;12.02;;;3.38;;
35128;SDS011;21301;43.626;10.580;2022-09-09T12:17:22;6.30;;;1.80;;
35128;SDS011;21301;43.626;10.580;2022-09-09T12:20:03;7.20;;;1.50;;
35128;SDS011;21301;43.626;10.580;2022-09-09T12:22:35;5.43;;;1.48;;
35128;SDS011;21301;43.626;10.580;2022-09-09T12:28:15;23.88;;;10.55;;
35128;SDS011;21301;43.626;10.580;2022-09-09T12:33:23;10.52;;;1.75;;
35128;SDS011;21301;43.626;10.580;2022-09-09T12:35:56;5.55;;;1.67;;
35128;SDS011;21301;43.626;10.580;2022-09-09T12:38:32;10.20;;;2.08;;
35128;SDS011;21301;43.626;10.580;2022-09-09T12:41:01;22.95;;;9.77;;
35128;SDS011;21301;43.626;10.580;2022-09-09T12:43:28;8.68;;;2.40;;
35128;SDS011;21301;43.626;10.580;2022-09-09T12:46:03;18.60;;;3.45;;
35128;SDS011;21301;43.626;10.580;2022-09-09T12:48:36;6.75;;;1.20;;
35128;SDS011;21301;43.626;10.580;2022-09-09T12:51:21;6.13;;;1.85;;
35128;SDS011;21301;43.626;10.580;2022-09-09T12:53:53;6.00;;;1.23;;
35128;SDS011;21301;43.626;10.580;2022-09-09T12:56:21;6.88;;;1.63;;
35128;SDS011;21301;43.626;10.580;2022-09-09T12:58:52;4.68;;;1.55;;
35128;SDS011;21301;43.626;10.580;2022-09-09T13:01:26;6.25;;;1.48;;
35128;SDS011;21301;43.626;10.580;2022-09-09T13:03:53;6.90;;;1.60;;
35128;SDS011;21301;43.626;10.580;2022-09-09T13:06:21;4.05;;;1.50;;
35128;SDS011;21301;43.626;10.580;2022-09-09T13:08:49;7.07;;;1.92;;
35128;SDS011;21301;43.626;10.580;2022-09-09T13:11:24;3.42;;;1.17;;
35128;SDS011;21301;43.626;10.580;2022-09-09T13:13:54;4.40;;;1.13;;
35128;SDS011;21301;43.626;10.580;2022-09-09T13:18:50;5.15;;;1.25;;
35128;SDS011;21301;43.626;10.580;2022-09-09T13:21:17;6.28;;;1.38;;
35128;SDS011;21301;43.626;10.580;2022-09-09T13:23:48;5.18;;;1.35;;
35128;SDS011;21301;43.626;10.580;2022-09-09T13:26:20;9.50;;;1.92;;
35128;SDS011;21301;43.626;10.580;2022-09-09T13:28:48;4.20;;;1.42;;
35128;SDS011;21301;43.626;10.580;2022-09-09T13:31:30;3.88;;;0.93;;
35128;SDS011;21301;43.626;10.580;2022-09-09T13:33:59;5.78;;;1.60;;
35128;SDS011;21301;43.626;10.580;2022-09-09T13:36:35;4.07;;;1.50;;
35128;SDS011;21301;43.626;10.580;2022-09-09T13:39:01;3.15;;;1.00;;
35128;SDS011;21301;43.626;10.580;2022-09-09T13:41:32;4.10;;;0.98;;
35128;SDS011;21301;43.626;10.580;2022-09-09T13:44:16;3.95;;;1.15;;
35128;SDS011;21301;43.626;10.580;2022-09-09T13:46:59;4.97;;;0.90;;
35128;SDS011;21301;43.626;10.580;2022-09-09T13:49:27;5.20;;;1.08;;
35128;SDS011;21301;43.626;10.580;2022-09-09T13:52:03;3.30;;;0.75;;
35128;SDS011;21301;43.626;10.580;2022-09-09T13:54:33;4.85;;;1.08;;
35128;SDS011;21301;43.626;10.580;2022-09-09T13:57:00;2.83;;;1.00;;
35128;SDS011;21301;43.626;10.580;2022-09-09T13:59:29;3.75;;;1.60;;
35128;SDS011;21301;43.626;10.580;2022-09-09T14:01:56;4.28;;;1.35;;
35128;SDS011;21301;43.626;10.580;2022-09-09T14:04:23;4.05;;;0.68;;
35128;SDS011;21301;43.626;10.580;2022-09-09T14:06:49;4.50;;;1.02;;
35128;SDS011;21301;43.626;10.580;2022-09-09T14:09:15;3.25;;;0.80;;
35128;SDS011;21301;43.626;10.580;2022-09-09T14:11:43;4.32;;;1.00;;
35128;SDS011;21301;43.626;10.580;2022-09-09T14:14:10;3.88;;;1.10;;
35128;SDS011;21301;43.626;10.580;2022-09-09T14:16:36;4.00;;;1.00;;
35128;SDS011;21301;43.626;10.580;2022-09-09T14:19:03;2.72;;;0.77;;
35128;SDS011;21301;43.626;10.580;2022-09-09T14:21:29;4.13;;;1.10;;
35128;SDS011;21301;43.626;10.580;2022-09-09T14:23:54;2.92;;;0.90;;
35128;SDS011;21301;43.626;10.580;2022-09-09T14:26:23;11.88;;;0.93;;
35128;SDS011;21301;43.626;10.580;2022-09-09T14:28:49;4.30;;;1.23;;
35128;SDS011;21301;43.626;10.580;2022-09-09T14:31:15;2.20;;;0.63;;
35128;SDS011;21301;43.626;10.580;2022-09-09T14:33:43;2.33;;;0.63;;
35128;SDS011;21301;43.626;10.580;2022-09-09T14:36:09;2.58;;;0.55;;
35128;SDS011;21301;43.626;10.580;2022-09-09T14:38:36;3.17;;;0.90;;
35128;SDS011;21301;43.626;10.580;2022-09-09T14:41:07;6.35;;;0.50;;
35128;SDS011;21301;43.626;10.580;2022-09-09T14:43:35;4.57;;;0.90;;
35128;SDS011;21301;43.626;10.580;2022-09-09T14:46:13;8.10;;;0.98;;
35128;SDS011;21301;43.626;10.580;2022-09-09T14:48:40;14.60;;;1.73;;
35128;SDS011;21301;43.626;10.580;2022-09-09T14:51:17;7.47;;;1.30;;
35128;SDS011;21301;43.626;10.580;2022-09-09T14:53:54;5.30;;;1.00;;
35128;SDS011;21301;43.626;10.580;2022-09-09T14:56:23;9.63;;;1.40;;
35128;SDS011;21301;43.626;10.580;2022-09-09T14:58:52;8.75;;;1.15;;
35128;SDS011;21301;43.626;10.580;2022-09-09T15:01:19;7.75;;;1.55;;
35128;SDS011;21301;43.626;10.580;2022-09-09T15:03:51;4.57;;;1.33;;
35128;SDS011;21301;43.626;10.580;2022-09-09T15:06:21;5.38;;;1.38;;
35128;SDS011;21301;43.626;10.580;2022-09-09T15:08:49;12.05;;;1.63;;
35128;SDS011;21301;43.626;10.580;2022-09-09T15:11:16;17.30;;;2.15;;
35128;SDS011;21301;43.626;10.580;2022-09-09T15:13:42;10.05;;;2.00;;
35128;SDS011;21301;43.626;10.580;2022-09-09T15:16:13;6.95;;;1.13;;
35128;SDS011;21301;43.626;10.580;2022-09-09T15:18:43;7.05;;;1.40;;
35128;SDS011;21301;43.626;10.580;2022-09-09T15:21:10;5.53;;;1.10;;
35128;SDS011;21301;43.626;10.580;2022-09-09T15:23:41;8.90;;;1.50;;
35128;SDS011;21301;43.626;10.580;2022-09-09T15:26:08;7.43;;;2.25;;
35128;SDS011;21301;43.626;10.580;2022-09-09T15:28:34;9.00;;;1.73;;
35128;SDS011;21301;43.626;10.580;2022-09-09T15:31:09;3.85;;;1.17;;
35128;SDS011;21301;43.626;10.580;2022-09-09T15:33:39;6.80;;;1.45;;
35128;SDS011;21301;43.626;10.580;2022-09-09T15:36:16;11.35;;;1.85;;
35128;SDS011;21301;43.626;10.580;2022-09-09T15:38:43;8.52;;;1.80;;
35128;SDS011;21301;43.626;10.580;2022-09-09T15:41:10;6.85;;;1.63;;
35128;SDS011;21301;43.626;10.580;2022-09-09T15:43:37;6.63;;;2.00;;
35128;SDS011;21301;43.626;10.580;2022-09-09T15:51:31;4.80;;;1.10;;
35128;SDS011;21301;43.626;10.580;2022-09-09T15:53:58;5.05;;;1.65;;
35128;SDS011;21301;43.626;10.580;2022-09-09T15:56:25;7.57;;;1.33;;
35128;SDS011;21301;43.626;10.580;2022-09-09T15:58:53;6.40;;;1.98;;
35128;SDS011;21301;43.626;10.580;2022-09-09T16:01:20;11.95;;;1.88;;
35128;SDS011;21301;43.626;10.580;2022-09-09T16:03:46;6.32;;;1.77;;
35128;SDS011;21301;43.626;10.580;2022-09-09T16:06:13;6.97;;;1.77;;
35128;SDS011;21301;43.626;10.580;2022-09-09T16:08:40;6.07;;;1.70;;
35128;SDS011;21301;43.626;10.580;2022-09-09T16:11:12;11.75;;;5.05;;
35128;SDS011;21301;43.626;10.580;2022-09-09T16:13:43;6.80;;;1.90;;
35128;SDS011;21301;43.626;10.580;2022-09-09T16:16:10;5.13;;;1.73;;
35128;SDS011;21301;43.626;10.580;2022-09-09T16:18:38;5.68;;;1.33;;
35128;SDS011;21301;43.626;10.580;2022-09-09T16:21:05;11.90;;;3.13;;
35128;SDS011;21301;43.626;10.580;2022-09-09T16:23:33;11.88;;;2.00;;
35128;SDS011;21301;43.626;10.580;2022-09-09T16:25:59;6.47;;;1.63;;
35128;SDS011;21301;43.626;10.580;2022-09-09T16:28:26;7.30;;;2.28;;
35128;SDS011;21301;43.626;10.580;2022-09-09T16:30:52;7.60;;;1.50;;
35128;SDS011;21301;43.626;10.580;2022-09-09T16:33:18;8.23;;;1.38;;
35128;SDS011;21301;43.626;10.580;2022-09-09T16:35:44;7.78;;;1.63;;
35128;SDS011;21301;43.626;10.580;2022-09-09T16:38:10;4.30;;;1.40;;
35128;SDS011;21301;43.626;10.580;2022-09-09T16:40:37;7.60;;;1.33;;
35128;SDS011;21301;43.626;10.580;2022-09-09T16:43:03;5.18;;;1.17;;
35128;SDS011;21301;43.626;10.580;2022-09-09T16:45:30;5.15;;;1.35;;
35128;SDS011;21301;43.626;10.580;2022-09-09T16:47:57;7.55;;;1.33;;
35128;SDS011;21301;43.626;10.580;2022-09-09T16:50:26;10.88;;;2.60;;
35128;SDS011;21301;43.626;10.580;2022-09-09T16:52:52;8.27;;;1.55;;
35128;SDS011;21301;43.626;10.580;2022-09-09T16:55:18;8.50;;;1.63;;
35128;SDS011;21301;43.626;10.580;2022-09-09T16:57:47;8.23;;;1.17;;
35128;SDS011;21301;43.626;10.580;2022-09-09T17:00:16;8.63;;;1.33;;
35128;SDS011;21301;43.626;10.580;2022-09-09T17:02:42;5.85;;;1.55;;
35128;SDS011;21301;43.626;10.580;2022-09-09T17:05:10;7.43;;;1.40;;
35128;SDS011;21301;43.626;10.580;2022-09-09T17:07:37;5.85;;;1.40;;
35128;SDS011;21301;43.626;10.580;2022-09-09T17:10:04;5.60;;;1.40;;
35128;SDS011;21301;43.626;10.580;2022-09-09T17:12:31;6.63;;;1.85;;
35128;SDS011;21301;43.626;10.580;2022-09-09T17:14:58;6.80;;;1.10;;
35128;SDS011;21301;43.626;10.580;2022-09-09T17:17:25;10.93;;;2.45;;
35128;SDS011;21301;43.626;10.580;2022-09-09T17:19:51;9.82;;;1.60;;